sensor_id;sensor_type;location;lat;lon;timestamp;P1;durP1;ratioP1;P2;durP2;ratioP2
28022;SDS011;67403;50.104;8.758;2023-02-15T00:01:05;28.60;;;11.93;;
28022;SDS011;67403;50.104;8.758;2023-02-15T00:03:33;29.67;;;12.52;;
28022;SDS011;67403;50.104;8.758;2023-02-15T00:05:59;29.98;;;11.95;;
28022;SDS011;67403;50.104;8.758;2023-02-15T00:08:28;32.63;;;11.32;;
28022;SDS011;67403;50.104;8.758;2023-02-15T00:11:02;34.10;;;12.95;;
28022;SDS011;67403;50.104;8.758;2023-02-15T00:13:30;31.63;;;11.95;;
28022;SDS011;67403;50.104;8.758;2023-02-15T00:16:00;28.20;;;12.45;;
28022;SDS011;67403;50.104;8.758;2023-02-15T00:18:27;30.45;;;12.45;;
28022;SDS011;67403;50.104;8.758;2023-02-15T00:20:54;36.33;;;11.55;;
28022;SDS011;67403;50.104;8.758;2023-02-15T00:23:21;26.15;;;11.23;;
28022;SDS011;67403;50.104;8.758;2023-02-15T00:25:50;32.45;;;12.77;;
28022;SDS011;67403;50.104;8.758;2023-02-15T00:28:17;31.42;;;12.38;;
28022;SDS011;67403;50.104;8.758;2023-02-15T00:30:43;28.92;;;12.95;;
28022;SDS011;67403;50.104;8.758;2023-02-15T00:33:10;27.33;;;11.85;;
28022;SDS011;67403;50.104;8.758;2023-02-15T00:35:37;30.60;;;12.88;;
28022;SDS011;67403;50.104;8.758;2023-02-15T00:38:04;37.03;;;12.30;;
28022;SDS011;67403;50.104;8.758;2023-02-15T00:40:31;33.17;;;11.90;;
28022;SDS011;67403;50.104;8.758;2023-02-15T00:42:59;36.28;;;12.98;;
28022;SDS011;67403;50.104;8.758;2023-02-15T00:45:26;28.48;;;12.45;;
28022;SDS011;67403;50.104;8.758;2023-02-15T00:47:53;38.15;;;13.63;;
28022;SDS011;67403;50.104;8.758;2023-02-15T00:50:20;41.75;;;13.45;;
28022;SDS011;67403;50.104;8.758;2023-02-15T00:52:47;35.33;;;14.90;;
28022;SDS011;67403;50.104;8.758;2023-02-15T00:55:13;26.60;;;11.85;;
28022;SDS011;67403;50.104;8.758;2023-02-15T00:57:40;36.67;;;12.82;;
28022;SDS011;67403;50.104;8.758;2023-02-15T01:00:09;35.60;;;13.18;;
28022;SDS011;67403;50.104;8.758;2023-02-15T01:02:37;39.63;;;13.77;;
28022;SDS011;67403;50.104;8.758;2023-02-15T01:05:04;40.38;;;12.98;;
28022;SDS011;67403;50.104;8.758;2023-02-15T01:07:31;35.70;;;13.65;;
28022;SDS011;67403;50.104;8.758;2023-02-15T01:09:58;39.15;;;12.82;;
28022;SDS011;67403;50.104;8.758;2023-02-15T01:12:25;33.33;;;13.60;;
28022;SDS011;67403;50.104;8.758;2023-02-15T01:14:52;36.67;;;12.65;;
28022;SDS011;67403;50.104;8.758;2023-02-15T01:17:20;35.50;;;12.55;;
28022;SDS011;67403;50.104;8.758;2023-02-15T01:19:47;35.38;;;11.95;;
28022;SDS011;67403;50.104;8.758;2023-02-15T01:22:14;39.03;;;13.50;;
28022;SDS011;67403;50.104;8.758;2023-02-15T01:24:41;39.35;;;12.38;;
28022;SDS011;67403;50.104;8.758;2023-02-15T01:27:08;30.08;;;10.65;;
28022;SDS011;67403;50.104;8.758;2023-02-15T01:29:34;32.53;;;12.00;;
28022;SDS011;67403;50.104;8.758;2023-02-15T01:32:02;34.13;;;13.30;;
28022;SDS011;67403;50.104;8.758;2023-02-15T01:34:30;38.92;;;12.93;;
28022;SDS011;67403;50.104;8.758;2023-02-15T01:36:57;39.38;;;12.93;;
28022;SDS011;67403;50.104;8.758;2023-02-15T01:39:24;35.17;;;12.55;;
28022;SDS011;67403;50.104;8.758;2023-02-15T01:41:51;36.97;;;13.30;;
28022;SDS011;67403;50.104;8.758;2023-02-15T01:47:13;32.63;;;12.38;;
28022;SDS011;67403;50.104;8.758;2023-02-15T01:49:45;38.58;;;13.02;;
28022;SDS011;67403;50.104;8.758;2023-02-15T01:52:14;30.08;;;13.48;;
28022;SDS011;67403;50.104;8.758;2023-02-15T01:57:12;32.45;;;12.80;;
28022;SDS011;67403;50.104;8.758;2023-02-15T01:59:45;40.55;;;13.25;;
28022;SDS011;67403;50.104;8.758;2023-02-15T02:02:15;37.95;;;13.02;;
28022;SDS011;67403;50.104;8.758;2023-02-15T02:07:16;39.15;;;13.93;;
28022;SDS011;67403;50.104;8.758;2023-02-15T02:09:45;32.92;;;11.93;;
28022;SDS011;67403;50.104;8.758;2023-02-15T02:12:13;31.05;;;12.68;;
28022;SDS011;67403;50.104;8.758;2023-02-15T02:14:41;29.98;;;12.25;;
28022;SDS011;67403;50.104;8.758;2023-02-15T02:17:10;34.25;;;12.00;;
28022;SDS011;67403;50.104;8.758;2023-02-15T02:19:52;37.35;;;15.10;;
28022;SDS011;67403;50.104;8.758;2023-02-15T02:28:59;29.73;;;12.70;;
28022;SDS011;67403;50.104;8.758;2023-02-15T02:31:48;28.92;;;13.35;;
28022;SDS011;67403;50.104;8.758;2023-02-15T02:34:40;33.90;;;11.57;;
28022;SDS011;67403;50.104;8.758;2023-02-15T02:37:16;33.60;;;12.27;;
28022;SDS011;67403;50.104;8.758;2023-02-15T02:39:49;35.85;;;13.93;;
28022;SDS011;67403;50.104;8.758;2023-02-15T02:42:22;31.75;;;12.25;;
28022;SDS011;67403;50.104;8.758;2023-02-15T02:44:56;37.10;;;13.48;;
28022;SDS011;67403;50.104;8.758;2023-02-15T02:47:29;37.83;;;13.73;;
28022;SDS011;67403;50.104;8.758;2023-02-15T02:50:02;35.33;;;11.30;;
28022;SDS011;67403;50.104;8.758;2023-02-15T02:52:34;39.65;;;12.90;;
28022;SDS011;67403;50.104;8.758;2023-02-15T02:55:02;38.97;;;13.18;;
28022;SDS011;67403;50.104;8.758;2023-02-15T02:57:32;40.33;;;13.60;;
28022;SDS011;67403;50.104;8.758;2023-02-15T03:00:00;34.97;;;12.95;;
28022;SDS011;67403;50.104;8.758;2023-02-15T03:02:34;35.35;;;11.88;;
28022;SDS011;67403;50.104;8.758;2023-02-15T03:05:06;38.72;;;13.13;;
28022;SDS011;67403;50.104;8.758;2023-02-15T03:07:38;40.53;;;13.80;;
28022;SDS011;67403;50.104;8.758;2023-02-15T03:10:07;42.10;;;14.02;;
28022;SDS011;67403;50.104;8.758;2023-02-15T03:12:36;29.90;;;12.63;;
28022;SDS011;67403;50.104;8.758;2023-02-15T03:15:06;28.63;;;11.90;;
28022;SDS011;67403;50.104;8.758;2023-02-15T03:17:38;38.40;;;13.98;;
28022;SDS011;67403;50.104;8.758;2023-02-15T03:20:12;29.13;;;11.30;;
28022;SDS011;67403;50.104;8.758;2023-02-15T03:22:43;39.72;;;14.68;;
28022;SDS011;67403;50.104;8.758;2023-02-15T03:25:14;40.15;;;13.57;;
28022;SDS011;67403;50.104;8.758;2023-02-15T03:27:47;44.55;;;12.32;;
28022;SDS011;67403;50.104;8.758;2023-02-15T03:30:18;34.30;;;13.60;;
28022;SDS011;67403;50.104;8.758;2023-02-15T03:32:48;41.33;;;13.87;;
28022;SDS011;67403;50.104;8.758;2023-02-15T03:35:18;32.03;;;11.98;;
28022;SDS011;67403;50.104;8.758;2023-02-15T03:37:50;42.17;;;12.85;;
28022;SDS011;67403;50.104;8.758;2023-02-15T03:40:21;33.85;;;12.20;;
28022;SDS011;67403;50.104;8.758;2023-02-15T03:43:10;34.00;;;12.88;;
28022;SDS011;67403;50.104;8.758;2023-02-15T03:45:44;38.30;;;12.85;;
28022;SDS011;67403;50.104;8.758;2023-02-15T03:48:21;30.33;;;12.27;;
28022;SDS011;67403;50.104;8.758;2023-02-15T03:50:52;30.92;;;12.52;;
28022;SDS011;67403;50.104;8.758;2023-02-15T03:53:39;42.38;;;15.00;;
28022;SDS011;67403;50.104;8.758;2023-02-15T03:56:07;38.63;;;12.70;;
28022;SDS011;67403;50.104;8.758;2023-02-15T03:58:34;34.22;;;13.43;;
28022;SDS011;67403;50.104;8.758;2023-02-15T04:01:20;40.17;;;14.18;;
28022;SDS011;67403;50.104;8.758;2023-02-15T04:04:23;38.47;;;12.50;;
28022;SDS011;67403;50.104;8.758;2023-02-15T04:06:56;36.92;;;13.70;;
28022;SDS011;67403;50.104;8.758;2023-02-15T04:09:23;35.72;;;12.02;;
28022;SDS011;67403;50.104;8.758;2023-02-15T04:12:07;41.10;;;13.65;;
28022;SDS011;67403;50.104;8.758;2023-02-15T04:14:54;48.10;;;15.18;;
28022;SDS011;67403;50.104;8.758;2023-02-15T04:17:58;29.15;;;11.65;;
28022;SDS011;67403;50.104;8.758;2023-02-15T04:20:31;34.30;;;12.82;;
28022;SDS011;67403;50.104;8.758;2023-02-15T04:23:36;36.67;;;12.63;;
28022;SDS011;67403;50.104;8.758;2023-02-15T04:26:20;46.10;;;14.38;;
28022;SDS011;67403;50.104;8.758;2023-02-15T04:28:47;38.13;;;13.50;;
28022;SDS011;67403;50.104;8.758;2023-02-15T04:31:14;38.33;;;13.93;;
28022;SDS011;67403;50.104;8.758;2023-02-15T04:33:41;42.72;;;14.43;;
28022;SDS011;67403;50.104;8.758;2023-02-15T04:36:09;43.05;;;15.48;;
28022;SDS011;67403;50.104;8.758;2023-02-15T04:38:37;34.63;;;13.43;;
28022;SDS011;67403;50.104;8.758;2023-02-15T04:41:04;38.38;;;13.77;;
28022;SDS011;67403;50.104;8.758;2023-02-15T04:43:31;36.97;;;14.77;;
28022;SDS011;67403;50.104;8.758;2023-02-15T04:45:57;46.97;;;14.48;;
28022;SDS011;67403;50.104;8.758;2023-02-15T04:48:24;43.90;;;14.32;;
28022;SDS011;67403;50.104;8.758;2023-02-15T04:50:51;39.22;;;12.15;;
28022;SDS011;67403;50.104;8.758;2023-02-15T04:53:18;48.67;;;14.27;;
28022;SDS011;67403;50.104;8.758;2023-02-15T04:55:47;44.90;;;15.75;;
28022;SDS011;67403;50.104;8.758;2023-02-15T04:58:13;40.78;;;13.52;;
28022;SDS011;67403;50.104;8.758;2023-02-15T05:00:40;41.80;;;13.73;;
28022;SDS011;67403;50.104;8.758;2023-02-15T05:03:07;38.58;;;14.07;;
28022;SDS011;67403;50.104;8.758;2023-02-15T05:05:34;37.05;;;12.50;;
28022;SDS011;67403;50.104;8.758;2023-02-15T05:08:01;48.55;;;14.18;;
28022;SDS011;67403;50.104;8.758;2023-02-15T05:10:28;47.60;;;15.45;;
28022;SDS011;67403;50.104;8.758;2023-02-15T05:12:56;44.13;;;15.38;;
28022;SDS011;67403;50.104;8.758;2023-02-15T05:15:23;43.05;;;14.85;;
28022;SDS011;67403;50.104;8.758;2023-02-15T05:17:50;41.55;;;13.38;;
28022;SDS011;67403;50.104;8.758;2023-02-15T05:20:17;48.15;;;14.23;;
28022;SDS011;67403;50.104;8.758;2023-02-15T05:22:44;50.95;;;14.20;;
28022;SDS011;67403;50.104;8.758;2023-02-15T05:25:11;48.00;;;16.00;;
28022;SDS011;67403;50.104;8.758;2023-02-15T05:27:57;42.38;;;13.32;;
28022;SDS011;67403;50.104;8.758;2023-02-15T05:30:42;42.25;;;14.68;;
28022;SDS011;67403;50.104;8.758;2023-02-15T05:33:09;40.42;;;14.90;;
28022;SDS011;67403;50.104;8.758;2023-02-15T05:35:35;46.72;;;16.02;;
28022;SDS011;67403;50.104;8.758;2023-02-15T05:38:03;41.00;;;13.65;;
28022;SDS011;67403;50.104;8.758;2023-02-15T05:40:29;44.95;;;15.65;;
28022;SDS011;67403;50.104;8.758;2023-02-15T05:42:58;45.50;;;15.75;;
28022;SDS011;67403;50.104;8.758;2023-02-15T05:45:25;49.38;;;15.00;;
28022;SDS011;67403;50.104;8.758;2023-02-15T05:47:52;38.00;;;14.43;;
28022;SDS011;67403;50.104;8.758;2023-02-15T05:50:19;48.03;;;14.40;;
28022;SDS011;67403;50.104;8.758;2023-02-15T05:52:45;46.47;;;15.68;;
28022;SDS011;67403;50.104;8.758;2023-02-15T05:55:12;33.22;;;13.20;;
28022;SDS011;67403;50.104;8.758;2023-02-15T05:57:39;39.95;;;13.85;;
28022;SDS011;67403;50.104;8.758;2023-02-15T06:00:08;38.65;;;13.20;;
28022;SDS011;67403;50.104;8.758;2023-02-15T06:02:36;36.10;;;11.25;;
28022;SDS011;67403;50.104;8.758;2023-02-15T06:05:04;42.00;;;14.02;;
28022;SDS011;67403;50.104;8.758;2023-02-15T06:07:32;47.08;;;14.35;;
28022;SDS011;67403;50.104;8.758;2023-02-15T06:09:59;42.38;;;14.65;;
28022;SDS011;67403;50.104;8.758;2023-02-15T06:12:25;46.17;;;17.02;;
28022;SDS011;67403;50.104;8.758;2023-02-15T06:14:52;52.38;;;14.60;;
28022;SDS011;67403;50.104;8.758;2023-02-15T06:17:21;30.45;;;12.25;;
28022;SDS011;67403;50.104;8.758;2023-02-15T06:19:48;39.03;;;14.65;;
28022;SDS011;67403;50.104;8.758;2023-02-15T06:22:14;29.48;;;12.07;;
28022;SDS011;67403;50.104;8.758;2023-02-15T06:24:41;47.85;;;12.48;;
28022;SDS011;67403;50.104;8.758;2023-02-15T06:27:08;33.72;;;12.77;;
28022;SDS011;67403;50.104;8.758;2023-02-15T06:29:36;48.13;;;14.88;;
28022;SDS011;67403;50.104;8.758;2023-02-15T06:32:03;35.85;;;13.15;;
28022;SDS011;67403;50.104;8.758;2023-02-15T06:34:32;39.88;;;13.80;;
28022;SDS011;67403;50.104;8.758;2023-02-15T06:36:59;40.55;;;15.80;;
28022;SDS011;67403;50.104;8.758;2023-02-15T06:39:26;40.45;;;13.57;;
28022;SDS011;67403;50.104;8.758;2023-02-15T06:41:52;33.45;;;12.93;;
28022;SDS011;67403;50.104;8.758;2023-02-15T06:44:19;38.03;;;13.23;;
28022;SDS011;67403;50.104;8.758;2023-02-15T06:46:46;36.35;;;13.13;;
28022;SDS011;67403;50.104;8.758;2023-02-15T06:49:13;40.20;;;14.38;;
28022;SDS011;67403;50.104;8.758;2023-02-15T06:51:41;37.45;;;12.32;;
28022;SDS011;67403;50.104;8.758;2023-02-15T06:54:08;41.30;;;13.40;;
28022;SDS011;67403;50.104;8.758;2023-02-15T06:56:35;40.60;;;14.00;;
28022;SDS011;67403;50.104;8.758;2023-02-15T06:59:02;42.75;;;13.85;;
28022;SDS011;67403;50.104;8.758;2023-02-15T07:01:29;44.47;;;13.15;;
28022;SDS011;67403;50.104;8.758;2023-02-15T07:03:56;34.28;;;11.60;;
28022;SDS011;67403;50.104;8.758;2023-02-15T07:06:22;44.60;;;13.75;;
28022;SDS011;67403;50.104;8.758;2023-02-15T07:08:51;42.55;;;14.23;;
28022;SDS011;67403;50.104;8.758;2023-02-15T07:11:17;35.38;;;13.63;;
28022;SDS011;67403;50.104;8.758;2023-02-15T07:14:02;39.17;;;12.85;;
28022;SDS011;67403;50.104;8.758;2023-02-15T07:16:29;35.60;;;12.73;;
28022;SDS011;67403;50.104;8.758;2023-02-15T07:18:56;44.80;;;15.50;;
28022;SDS011;67403;50.104;8.758;2023-02-15T07:21:23;43.15;;;14.60;;
28022;SDS011;67403;50.104;8.758;2023-02-15T07:23:51;35.83;;;13.40;;
28022;SDS011;67403;50.104;8.758;2023-02-15T07:26:18;40.67;;;14.93;;
28022;SDS011;67403;50.104;8.758;2023-02-15T07:28:45;32.83;;;12.93;;
28022;SDS011;67403;50.104;8.758;2023-02-15T07:31:12;35.70;;;12.30;;
28022;SDS011;67403;50.104;8.758;2023-02-15T07:33:39;34.00;;;12.48;;
28022;SDS011;67403;50.104;8.758;2023-02-15T07:36:06;43.20;;;13.02;;
28022;SDS011;67403;50.104;8.758;2023-02-15T07:38:35;36.20;;;12.95;;
28022;SDS011;67403;50.104;8.758;2023-02-15T07:41:05;37.40;;;12.82;;
28022;SDS011;67403;50.104;8.758;2023-02-15T07:43:34;31.88;;;11.55;;
28022;SDS011;67403;50.104;8.758;2023-02-15T07:46:03;35.00;;;12.73;;
28022;SDS011;67403;50.104;8.758;2023-02-15T07:48:32;47.85;;;15.10;;
28022;SDS011;67403;50.104;8.758;2023-02-15T07:51:00;35.83;;;13.55;;
28022;SDS011;67403;50.104;8.758;2023-02-15T07:53:28;34.42;;;11.95;;
28022;SDS011;67403;50.104;8.758;2023-02-15T07:55:57;35.40;;;12.48;;
28022;SDS011;67403;50.104;8.758;2023-02-15T07:58:26;26.67;;;10.77;;
28022;SDS011;67403;50.104;8.758;2023-02-15T08:01:07;37.10;;;12.00;;
28022;SDS011;67403;50.104;8.758;2023-02-15T08:03:34;41.50;;;13.60;;
28022;SDS011;67403;50.104;8.758;2023-02-15T08:06:01;33.55;;;11.77;;
28022;SDS011;67403;50.104;8.758;2023-02-15T08:08:28;30.75;;;11.35;;
28022;SDS011;67403;50.104;8.758;2023-02-15T08:13:44;22.23;;;9.60;;
28022;SDS011;67403;50.104;8.758;2023-02-15T08:16:21;31.50;;;11.88;;
28022;SDS011;67403;50.104;8.758;2023-02-15T08:18:49;33.22;;;12.27;;
28022;SDS011;67403;50.104;8.758;2023-02-15T08:21:17;30.60;;;12.15;;
28022;SDS011;67403;50.104;8.758;2023-02-15T08:23:44;25.63;;;10.50;;
28022;SDS011;67403;50.104;8.758;2023-02-15T08:26:11;30.45;;;12.43;;
28022;SDS011;67403;50.104;8.758;2023-02-15T08:28:38;43.25;;;12.00;;
28022;SDS011;67403;50.104;8.758;2023-02-15T08:31:07;33.03;;;12.95;;
28022;SDS011;67403;50.104;8.758;2023-02-15T08:33:36;28.90;;;10.23;;
28022;SDS011;67403;50.104;8.758;2023-02-15T08:36:05;35.63;;;13.20;;
28022;SDS011;67403;50.104;8.758;2023-02-15T08:38:33;24.63;;;9.40;;
28022;SDS011;67403;50.104;8.758;2023-02-15T08:41:08;24.10;;;10.32;;
28022;SDS011;67403;50.104;8.758;2023-02-15T08:43:36;22.80;;;10.25;;
28022;SDS011;67403;50.104;8.758;2023-02-15T08:46:04;25.10;;;9.23;;
28022;SDS011;67403;50.104;8.758;2023-02-15T08:48:32;24.25;;;10.60;;
28022;SDS011;67403;50.104;8.758;2023-02-15T08:51:03;30.50;;;9.70;;
28022;SDS011;67403;50.104;8.758;2023-02-15T08:53:32;19.55;;;8.13;;
28022;SDS011;67403;50.104;8.758;2023-02-15T08:55:59;24.48;;;8.80;;
28022;SDS011;67403;50.104;8.758;2023-02-15T08:58:27;26.73;;;10.45;;
28022;SDS011;67403;50.104;8.758;2023-02-15T09:00:54;26.13;;;10.80;;
28022;SDS011;67403;50.104;8.758;2023-02-15T09:03:21;21.50;;;9.32;;
28022;SDS011;67403;50.104;8.758;2023-02-15T09:05:49;20.45;;;9.73;;
28022;SDS011;67403;50.104;8.758;2023-02-15T09:08:16;22.75;;;8.70;;
28022;SDS011;67403;50.104;8.758;2023-02-15T09:10:43;25.45;;;8.82;;
28022;SDS011;67403;50.104;8.758;2023-02-15T09:13:10;27.42;;;9.82;;
28022;SDS011;67403;50.104;8.758;2023-02-15T09:15:38;21.63;;;9.52;;
28022;SDS011;67403;50.104;8.758;2023-02-15T09:18:05;22.67;;;9.73;;
28022;SDS011;67403;50.104;8.758;2023-02-15T09:20:34;20.85;;;8.73;;
28022;SDS011;67403;50.104;8.758;2023-02-15T09:23:03;27.33;;;10.30;;
28022;SDS011;67403;50.104;8.758;2023-02-15T09:25:30;27.13;;;10.40;;
28022;SDS011;67403;50.104;8.758;2023-02-15T09:27:57;23.95;;;9.93;;
28022;SDS011;67403;50.104;8.758;2023-02-15T09:30:23;24.02;;;9.88;;
28022;SDS011;67403;50.104;8.758;2023-02-15T09:32:50;26.50;;;10.20;;
28022;SDS011;67403;50.104;8.758;2023-02-15T09:35:17;29.42;;;10.68;;
28022;SDS011;67403;50.104;8.758;2023-02-15T09:37:44;23.23;;;9.52;;
28022;SDS011;67403;50.104;8.758;2023-02-15T09:40:13;23.35;;;8.45;;
28022;SDS011;67403;50.104;8.758;2023-02-15T09:42:54;21.92;;;8.48;;
28022;SDS011;67403;50.104;8.758;2023-02-15T09:45:49;25.33;;;8.88;;
28022;SDS011;67403;50.104;8.758;2023-02-15T09:48:33;23.38;;;8.70;;
28022;SDS011;67403;50.104;8.758;2023-02-15T09:54:04;26.48;;;9.85;;
28022;SDS011;67403;50.104;8.758;2023-02-15T09:56:47;25.30;;;9.20;;
28022;SDS011;67403;50.104;8.758;2023-02-15T09:59:21;30.45;;;10.32;;
28022;SDS011;67403;50.104;8.758;2023-02-15T10:01:55;28.02;;;11.13;;
28022;SDS011;67403;50.104;8.758;2023-02-15T10:04:36;21.90;;;9.07;;
28022;SDS011;67403;50.104;8.758;2023-02-15T10:07:16;19.15;;;8.70;;
28022;SDS011;67403;50.104;8.758;2023-02-15T10:10:02;22.02;;;9.00;;
28022;SDS011;67403;50.104;8.758;2023-02-15T10:12:45;31.50;;;10.60;;
28022;SDS011;67403;50.104;8.758;2023-02-15T10:15:31;25.95;;;10.55;;
28022;SDS011;67403;50.104;8.758;2023-02-15T10:18:16;18.25;;;7.10;;
28022;SDS011;67403;50.104;8.758;2023-02-15T10:20:58;25.88;;;10.13;;
28022;SDS011;67403;50.104;8.758;2023-02-15T10:23:33;20.80;;;8.68;;
28022;SDS011;67403;50.104;8.758;2023-02-15T10:26:11;17.80;;;8.77;;
28022;SDS011;67403;50.104;8.758;2023-02-15T10:28:45;22.45;;;8.32;;
28022;SDS011;67403;50.104;8.758;2023-02-15T10:31:17;21.25;;;8.77;;
28022;SDS011;67403;50.104;8.758;2023-02-15T10:33:52;20.77;;;8.48;;
28022;SDS011;67403;50.104;8.758;2023-02-15T10:36:32;22.50;;;9.07;;
28022;SDS011;67403;50.104;8.758;2023-02-15T10:39:09;19.15;;;9.32;;
28022;SDS011;67403;50.104;8.758;2023-02-15T10:41:49;21.48;;;8.40;;
28022;SDS011;67403;50.104;8.758;2023-02-15T10:44:29;22.40;;;8.60;;
28022;SDS011;67403;50.104;8.758;2023-02-15T10:47:09;23.40;;;8.45;;
28022;SDS011;67403;50.104;8.758;2023-02-15T10:49:52;17.13;;;9.18;;
28022;SDS011;67403;50.104;8.758;2023-02-15T10:52:33;26.83;;;9.45;;
28022;SDS011;67403;50.104;8.758;2023-02-15T10:55:15;20.10;;;7.65;;
28022;SDS011;67403;50.104;8.758;2023-02-15T10:57:50;22.65;;;10.07;;
28022;SDS011;67403;50.104;8.758;2023-02-15T11:00:27;23.30;;;7.53;;
28022;SDS011;67403;50.104;8.758;2023-02-15T11:03:23;18.30;;;8.82;;
28022;SDS011;67403;50.104;8.758;2023-02-15T11:06:03;29.58;;;10.35;;
28022;SDS011;67403;50.104;8.758;2023-02-15T11:08:33;20.92;;;8.18;;
28022;SDS011;67403;50.104;8.758;2023-02-15T11:11:03;26.73;;;10.25;;
28022;SDS011;67403;50.104;8.758;2023-02-15T11:13:35;24.88;;;10.25;;
28022;SDS011;67403;50.104;8.758;2023-02-15T11:16:08;17.90;;;8.48;;
28022;SDS011;67403;50.104;8.758;2023-02-15T11:18:39;21.70;;;9.38;;
28022;SDS011;67403;50.104;8.758;2023-02-15T11:21:11;27.23;;;11.23;;
28022;SDS011;67403;50.104;8.758;2023-02-15T11:23:45;28.83;;;10.93;;
28022;SDS011;67403;50.104;8.758;2023-02-15T11:26:14;28.20;;;10.75;;
28022;SDS011;67403;50.104;8.758;2023-02-15T11:28:47;35.22;;;11.88;;
28022;SDS011;67403;50.104;8.758;2023-02-15T11:31:21;27.92;;;11.75;;
28022;SDS011;67403;50.104;8.758;2023-02-15T11:33:51;27.40;;;12.02;;
28022;SDS011;67403;50.104;8.758;2023-02-15T11:36:22;33.30;;;12.75;;
28022;SDS011;67403;50.104;8.758;2023-02-15T11:38:54;31.52;;;13.25;;
28022;SDS011;67403;50.104;8.758;2023-02-15T11:41:24;36.65;;;13.75;;
28022;SDS011;67403;50.104;8.758;2023-02-15T11:43:56;31.80;;;12.73;;
28022;SDS011;67403;50.104;8.758;2023-02-15T11:46:27;37.17;;;13.63;;
28022;SDS011;67403;50.104;8.758;2023-02-15T11:48:54;43.22;;;14.63;;
28022;SDS011;67403;50.104;8.758;2023-02-15T11:51:21;41.13;;;13.30;;
28022;SDS011;67403;50.104;8.758;2023-02-15T11:53:49;37.88;;;14.63;;
28022;SDS011;67403;50.104;8.758;2023-02-15T11:56:18;37.13;;;15.23;;
28022;SDS011;67403;50.104;8.758;2023-02-15T11:58:47;37.45;;;14.43;;
28022;SDS011;67403;50.104;8.758;2023-02-15T12:01:20;35.53;;;13.45;;
28022;SDS011;67403;50.104;8.758;2023-02-15T12:03:52;40.60;;;15.60;;
28022;SDS011;67403;50.104;8.758;2023-02-15T12:06:24;36.80;;;14.63;;
28022;SDS011;67403;50.104;8.758;2023-02-15T12:08:54;37.28;;;14.57;;
28022;SDS011;67403;50.104;8.758;2023-02-15T12:11:35;42.75;;;15.15;;
28022;SDS011;67403;50.104;8.758;2023-02-15T12:14:04;37.38;;;13.25;;
28022;SDS011;67403;50.104;8.758;2023-02-15T12:16:32;35.40;;;13.85;;
28022;SDS011;67403;50.104;8.758;2023-02-15T12:19:11;31.80;;;12.20;;
28022;SDS011;67403;50.104;8.758;2023-02-15T12:24:16;36.90;;;14.40;;
28022;SDS011;67403;50.104;8.758;2023-02-15T12:26:55;36.15;;;13.45;;
28022;SDS011;67403;50.104;8.758;2023-02-15T12:29:25;35.42;;;13.50;;
28022;SDS011;67403;50.104;8.758;2023-02-15T12:31:55;36.75;;;15.32;;
28022;SDS011;67403;50.104;8.758;2023-02-15T12:34:25;30.13;;;13.02;;
28022;SDS011;67403;50.104;8.758;2023-02-15T12:36:56;33.63;;;14.68;;
28022;SDS011;67403;50.104;8.758;2023-02-15T12:39:28;33.85;;;13.98;;
28022;SDS011;67403;50.104;8.758;2023-02-15T12:41:57;35.30;;;14.32;;
28022;SDS011;67403;50.104;8.758;2023-02-15T12:44:27;49.22;;;15.80;;
28022;SDS011;67403;50.104;8.758;2023-02-15T12:46:56;41.53;;;14.23;;
28022;SDS011;67403;50.104;8.758;2023-02-15T12:49:26;45.00;;;14.57;;
28022;SDS011;67403;50.104;8.758;2023-02-15T12:51:54;37.13;;;13.30;;
28022;SDS011;67403;50.104;8.758;2023-02-15T12:57:13;41.70;;;16.05;;
28022;SDS011;67403;50.104;8.758;2023-02-15T12:59:52;44.05;;;15.55;;
28022;SDS011;67403;50.104;8.758;2023-02-15T13:02:22;35.50;;;15.05;;
28022;SDS011;67403;50.104;8.758;2023-02-15T13:04:53;43.17;;;14.10;;
28022;SDS011;67403;50.104;8.758;2023-02-15T13:07:21;39.90;;;15.75;;
28022;SDS011;67403;50.104;8.758;2023-02-15T13:09:50;38.72;;;15.00;;
28022;SDS011;67403;50.104;8.758;2023-02-15T13:12:19;35.15;;;13.40;;
28022;SDS011;67403;50.104;8.758;2023-02-15T13:14:49;41.20;;;15.65;;
28022;SDS011;67403;50.104;8.758;2023-02-15T13:17:18;44.40;;;15.10;;
28022;SDS011;67403;50.104;8.758;2023-02-15T13:19:50;35.83;;;13.85;;
28022;SDS011;67403;50.104;8.758;2023-02-15T13:24:49;34.88;;;13.93;;
28022;SDS011;67403;50.104;8.758;2023-02-15T13:27:23;37.92;;;14.43;;
28022;SDS011;67403;50.104;8.758;2023-02-15T13:29:56;45.83;;;17.10;;
28022;SDS011;67403;50.104;8.758;2023-02-15T13:32:28;37.83;;;15.32;;
28022;SDS011;67403;50.104;8.758;2023-02-15T13:37:34;37.70;;;14.15;;
28022;SDS011;67403;50.104;8.758;2023-02-15T13:40:11;38.38;;;14.30;;
28022;SDS011;67403;50.104;8.758;2023-02-15T13:42:43;35.97;;;13.68;;
28022;SDS011;67403;50.104;8.758;2023-02-15T13:45:20;35.83;;;13.43;;
28022;SDS011;67403;50.104;8.758;2023-02-15T13:47:59;37.47;;;15.50;;
28022;SDS011;67403;50.104;8.758;2023-02-15T13:50:42;41.38;;;14.90;;
28022;SDS011;67403;50.104;8.758;2023-02-15T13:53:25;39.88;;;14.20;;
28022;SDS011;67403;50.104;8.758;2023-02-15T13:56:04;45.13;;;15.48;;
28022;SDS011;67403;50.104;8.758;2023-02-15T13:58:51;42.35;;;13.77;;
28022;SDS011;67403;50.104;8.758;2023-02-15T14:01:39;40.00;;;15.52;;
28022;SDS011;67403;50.104;8.758;2023-02-15T14:04:21;37.38;;;14.25;;
28022;SDS011;67403;50.104;8.758;2023-02-15T14:16:20;39.47;;;15.10;;
28022;SDS011;67403;50.104;8.758;2023-02-15T14:18:59;44.58;;;15.23;;
28022;SDS011;67403;50.104;8.758;2023-02-15T14:21:36;38.78;;;15.43;;
28022;SDS011;67403;50.104;8.758;2023-02-15T14:24:15;43.55;;;16.58;;
28022;SDS011;67403;50.104;8.758;2023-02-15T14:26:52;45.28;;;16.65;;
28022;SDS011;67403;50.104;8.758;2023-02-15T14:29:28;47.40;;;16.85;;
28022;SDS011;67403;50.104;8.758;2023-02-15T14:32:09;41.72;;;16.65;;
28022;SDS011;67403;50.104;8.758;2023-02-15T14:34:42;36.50;;;14.75;;
28022;SDS011;67403;50.104;8.758;2023-02-15T14:37:15;44.80;;;14.75;;
28022;SDS011;67403;50.104;8.758;2023-02-15T14:39:50;46.13;;;16.75;;
28022;SDS011;67403;50.104;8.758;2023-02-15T14:42:40;40.10;;;15.93;;
28022;SDS011;67403;50.104;8.758;2023-02-15T14:45:16;41.45;;;15.20;;
28022;SDS011;67403;50.104;8.758;2023-02-15T14:47:48;44.30;;;15.43;;
28022;SDS011;67403;50.104;8.758;2023-02-15T14:50:35;38.67;;;15.68;;
28022;SDS011;67403;50.104;8.758;2023-02-15T14:53:14;40.25;;;13.88;;
28022;SDS011;67403;50.104;8.758;2023-02-15T14:55:44;36.65;;;14.65;;
28022;SDS011;67403;50.104;8.758;2023-02-15T14:58:10;41.33;;;15.23;;
28022;SDS011;67403;50.104;8.758;2023-02-15T15:00:39;41.30;;;15.65;;
28022;SDS011;67403;50.104;8.758;2023-02-15T15:03:10;45.63;;;16.90;;
28022;SDS011;67403;50.104;8.758;2023-02-15T15:05:49;45.83;;;15.13;;
28022;SDS011;67403;50.104;8.758;2023-02-15T15:08:26;47.65;;;16.75;;
28022;SDS011;67403;50.104;8.758;2023-02-15T15:10:59;39.40;;;15.02;;
28022;SDS011;67403;50.104;8.758;2023-02-15T15:14:04;45.75;;;15.77;;
28022;SDS011;67403;50.104;8.758;2023-02-15T15:22:30;44.30;;;15.90;;
28022;SDS011;67403;50.104;8.758;2023-02-15T15:24:58;41.50;;;16.65;;
28022;SDS011;67403;50.104;8.758;2023-02-15T15:33:17;42.22;;;16.05;;
28022;SDS011;67403;50.104;8.758;2023-02-15T15:36:09;40.42;;;16.27;;
28022;SDS011;67403;50.104;8.758;2023-02-15T15:39:01;43.63;;;16.40;;
28022;SDS011;67403;50.104;8.758;2023-02-15T15:41:39;41.78;;;16.55;;